sensor_id;sensor_type;location;lat;lon;timestamp;P1;durP1;ratioP1;P2;durP2;ratioP2
2888;SDS011;1453;42.708;23.282;2022-08-21T00:02:19;1.27;;;0.70;;
2888;SDS011;1453;42.708;23.282;2022-08-21T00:04:48;5.93;;;2.60;;
2888;SDS011;1453;42.708;23.282;2022-08-21T00:07:15;2.60;;;2.40;;
2888;SDS011;1453;42.708;23.282;2022-08-21T00:09:46;1.23;;;0.80;;
2888;SDS011;1453;42.708;23.282;2022-08-21T00:12:13;1.20;;;0.80;;
2888;SDS011;1453;42.708;23.282;2022-08-21T00:14:39;2.60;;;2.40;;
2888;SDS011;1453;42.708;23.282;2022-08-21T00:17:05;1.30;;;0.80;;
2888;SDS011;1453;42.708;23.282;2022-08-21T00:19:31;1.30;;;0.80;;
2888;SDS011;1453;42.708;23.282;2022-08-21T00:21:58;1.23;;;0.70;;
2888;SDS011;1453;42.708;23.282;2022-08-21T00:24:24;1.90;;;1.20;;
2888;SDS011;1453;42.708;23.282;2022-08-21T00:26:51;1.30;;;0.90;;
2888;SDS011;1453;42.708;23.282;2022-08-21T00:29:17;1.30;;;1.20;;
2888;SDS011;1453;42.708;23.282;2022-08-21T00:31:44;1.30;;;0.70;;
2888;SDS011;1453;42.708;23.282;2022-08-21T00:34:10;1.60;;;1.03;;
2888;SDS011;1453;42.708;23.282;2022-08-21T00:36:38;1.40;;;1.20;;
2888;SDS011;1453;42.708;23.282;2022-08-21T00:39:05;1.30;;;0.80;;
2888;SDS011;1453;42.708;23.282;2022-08-21T00:41:32;1.30;;;0.80;;
2888;SDS011;1453;42.708;23.282;2022-08-21T00:44:02;1.23;;;0.80;;
2888;SDS011;1453;42.708;23.282;2022-08-21T00:46:29;1.30;;;0.80;;
2888;SDS011;1453;42.708;23.282;2022-08-21T00:48:55;1.27;;;0.80;;
2888;SDS011;1453;42.708;23.282;2022-08-21T00:51:23;1.23;;;0.77;;
2888;SDS011;1453;42.708;23.282;2022-08-21T00:54:24;1.63;;;1.53;;
2888;SDS011;1453;42.708;23.282;2022-08-21T00:56:54;1.30;;;0.80;;
2888;SDS011;1453;42.708;23.282;2022-08-21T00:59:26;1.30;;;0.80;;
2888;SDS011;1453;42.708;23.282;2022-08-21T01:01:55;1.23;;;0.80;;
2888;SDS011;1453;42.708;23.282;2022-08-21T01:04:21;1.77;;;1.67;;
2888;SDS011;1453;42.708;23.282;2022-08-21T01:06:48;1.40;;;1.23;;
2888;SDS011;1453;42.708;23.282;2022-08-21T01:09:14;1.93;;;1.43;;
2888;SDS011;1453;42.708;23.282;2022-08-21T01:11:40;67.47;;;15.17;;
2888;SDS011;1453;42.708;23.282;2022-08-21T01:14:10;1.30;;;0.80;;
2888;SDS011;1453;42.708;23.282;2022-08-21T01:16:38;4.77;;;3.73;;
2888;SDS011;1453;42.708;23.282;2022-08-21T01:19:06;22.20;;;15.73;;
2888;SDS011;1453;42.708;23.282;2022-08-21T01:21:33;25.90;;;15.30;;
2888;SDS011;1453;42.708;23.282;2022-08-21T01:24:00;41.13;;;27.97;;
2888;SDS011;1453;42.708;23.282;2022-08-21T01:26:27;31.00;;;17.37;;
2888;SDS011;1453;42.708;23.282;2022-08-21T01:31:37;25.90;;;14.73;;
2888;SDS011;1453;42.708;23.282;2022-08-21T01:34:04;28.37;;;17.07;;
2888;SDS011;1453;42.708;23.282;2022-08-21T01:36:30;33.63;;;20.10;;
2888;SDS011;1453;42.708;23.282;2022-08-21T01:38:57;30.83;;;20.60;;
2888;SDS011;1453;42.708;23.282;2022-08-21T01:41:23;33.07;;;18.47;;
2888;SDS011;1453;42.708;23.282;2022-08-21T01:43:49;57.00;;;40.73;;
2888;SDS011;1453;42.708;23.282;2022-08-21T01:46:15;42.40;;;27.13;;
2888;SDS011;1453;42.708;23.282;2022-08-21T01:48:42;29.20;;;20.00;;
2888;SDS011;1453;42.708;23.282;2022-08-21T01:51:08;38.23;;;25.93;;
2888;SDS011;1453;42.708;23.282;2022-08-21T01:53:35;27.57;;;18.03;;
2888;SDS011;1453;42.708;23.282;2022-08-21T01:56:03;26.83;;;16.43;;
2888;SDS011;1453;42.708;23.282;2022-08-21T01:58:33;26.60;;;15.77;;
2888;SDS011;1453;42.708;23.282;2022-08-21T02:01:00;28.60;;;20.23;;
2888;SDS011;1453;42.708;23.282;2022-08-21T02:03:27;25.80;;;17.47;;
2888;SDS011;1453;42.708;23.282;2022-08-21T02:05:54;20.70;;;13.80;;
2888;SDS011;1453;42.708;23.282;2022-08-21T02:08:19;21.03;;;15.77;;
2888;SDS011;1453;42.708;23.282;2022-08-21T02:10:47;25.40;;;15.90;;
2888;SDS011;1453;42.708;23.282;2022-08-21T02:13:14;27.77;;;17.50;;
2888;SDS011;1453;42.708;23.282;2022-08-21T02:15:41;30.17;;;22.17;;
2888;SDS011;1453;42.708;23.282;2022-08-21T02:18:06;31.53;;;22.00;;
2888;SDS011;1453;42.708;23.282;2022-08-21T02:20:34;37.23;;;25.63;;
2888;SDS011;1453;42.708;23.282;2022-08-21T02:23:07;41.57;;;29.87;;
2888;SDS011;1453;42.708;23.282;2022-08-21T02:25:35;21.93;;;15.80;;
2888;SDS011;1453;42.708;23.282;2022-08-21T02:28:03;20.50;;;13.97;;
2888;SDS011;1453;42.708;23.282;2022-08-21T02:30:37;23.33;;;17.73;;
2888;SDS011;1453;42.708;23.282;2022-08-21T02:33:10;22.63;;;14.87;;
2888;SDS011;1453;42.708;23.282;2022-08-21T02:35:39;19.40;;;13.17;;
2888;SDS011;1453;42.708;23.282;2022-08-21T02:38:10;17.40;;;13.43;;
2888;SDS011;1453;42.708;23.282;2022-08-21T02:40:40;17.60;;;12.50;;
2888;SDS011;1453;42.708;23.282;2022-08-21T02:43:09;17.13;;;13.30;;
2888;SDS011;1453;42.708;23.282;2022-08-21T02:45:37;16.57;;;11.30;;
2888;SDS011;1453;42.708;23.282;2022-08-21T02:48:05;17.27;;;11.37;;
2888;SDS011;1453;42.708;23.282;2022-08-21T02:50:37;18.70;;;12.33;;
2888;SDS011;1453;42.708;23.282;2022-08-21T02:53:28;19.00;;;11.07;;
2888;SDS011;1453;42.708;23.282;2022-08-21T02:55:56;21.00;;;14.80;;
2888;SDS011;1453;42.708;23.282;2022-08-21T02:58:27;18.17;;;12.97;;
2888;SDS011;1453;42.708;23.282;2022-08-21T03:00:57;18.50;;;13.30;;
2888;SDS011;1453;42.708;23.282;2022-08-21T03:03:23;22.83;;;14.70;;
2888;SDS011;1453;42.708;23.282;2022-08-21T03:05:51;20.60;;;15.03;;
2888;SDS011;1453;42.708;23.282;2022-08-21T03:08:17;26.97;;;17.77;;
2888;SDS011;1453;42.708;23.282;2022-08-21T03:10:50;31.93;;;23.00;;
2888;SDS011;1453;42.708;23.282;2022-08-21T03:13:18;24.83;;;18.23;;
2888;SDS011;1453;42.708;23.282;2022-08-21T03:15:46;23.30;;;15.50;;
2888;SDS011;1453;42.708;23.282;2022-08-21T03:18:13;26.20;;;17.10;;
2888;SDS011;1453;42.708;23.282;2022-08-21T03:20:40;31.77;;;15.90;;
2888;SDS011;1453;42.708;23.282;2022-08-21T03:23:07;25.73;;;16.03;;
2888;SDS011;1453;42.708;23.282;2022-08-21T03:25:34;20.80;;;14.83;;
2888;SDS011;1453;42.708;23.282;2022-08-21T03:28:01;22.53;;;15.97;;
2888;SDS011;1453;42.708;23.282;2022-08-21T03:30:29;19.83;;;13.43;;
2888;SDS011;1453;42.708;23.282;2022-08-21T03:32:56;25.67;;;16.03;;
2888;SDS011;1453;42.708;23.282;2022-08-21T03:35:24;16.53;;;13.57;;
2888;SDS011;1453;42.708;23.282;2022-08-21T03:37:51;21.47;;;14.93;;
2888;SDS011;1453;42.708;23.282;2022-08-21T03:40:17;21.93;;;14.37;;
2888;SDS011;1453;42.708;23.282;2022-08-21T03:42:45;19.70;;;13.60;;
2888;SDS011;1453;42.708;23.282;2022-08-21T03:45:15;20.53;;;14.60;;
2888;SDS011;1453;42.708;23.282;2022-08-21T03:50:30;20.73;;;14.63;;
2888;SDS011;1453;42.708;23.282;2022-08-21T03:52:58;19.60;;;14.63;;
2888;SDS011;1453;42.708;23.282;2022-08-21T03:55:24;24.77;;;15.63;;
2888;SDS011;1453;42.708;23.282;2022-08-21T03:57:51;26.33;;;16.13;;
2888;SDS011;1453;42.708;23.282;2022-08-21T04:00:18;24.23;;;17.23;;
2888;SDS011;1453;42.708;23.282;2022-08-21T04:02:44;23.93;;;16.60;;
2888;SDS011;1453;42.708;23.282;2022-08-21T04:05:13;30.20;;;19.07;;
2888;SDS011;1453;42.708;23.282;2022-08-21T04:07:52;36.37;;;24.50;;
2888;SDS011;1453;42.708;23.282;2022-08-21T04:10:26;39.83;;;26.70;;
2888;SDS011;1453;42.708;23.282;2022-08-21T04:12:53;39.33;;;27.90;;
2888;SDS011;1453;42.708;23.282;2022-08-21T04:15:20;39.80;;;28.30;;
2888;SDS011;1453;42.708;23.282;2022-08-21T04:17:48;37.83;;;26.17;;
2888;SDS011;1453;42.708;23.282;2022-08-21T04:20:15;35.50;;;26.30;;
2888;SDS011;1453;42.708;23.282;2022-08-21T04:22:41;38.23;;;25.40;;
2888;SDS011;1453;42.708;23.282;2022-08-21T04:25:09;42.07;;;24.13;;
2888;SDS011;1453;42.708;23.282;2022-08-21T04:27:37;38.00;;;23.90;;
2888;SDS011;1453;42.708;23.282;2022-08-21T04:30:04;35.90;;;22.20;;
2888;SDS011;1453;42.708;23.282;2022-08-21T04:32:31;33.33;;;22.10;;
2888;SDS011;1453;42.708;23.282;2022-08-21T04:34:58;37.27;;;23.50;;
2888;SDS011;1453;42.708;23.282;2022-08-21T04:37:29;37.80;;;25.13;;
2888;SDS011;1453;42.708;23.282;2022-08-21T04:39:55;36.53;;;23.83;;
2888;SDS011;1453;42.708;23.282;2022-08-21T04:42:26;32.43;;;22.40;;
2888;SDS011;1453;42.708;23.282;2022-08-21T04:44:53;37.80;;;24.83;;
2888;SDS011;1453;42.708;23.282;2022-08-21T04:47:20;40.83;;;23.40;;
2888;SDS011;1453;42.708;23.282;2022-08-21T04:49:47;45.47;;;23.90;;
2888;SDS011;1453;42.708;23.282;2022-08-21T04:52:13;38.10;;;23.10;;
2888;SDS011;1453;42.708;23.282;2022-08-21T04:54:45;38.50;;;24.50;;
2888;SDS011;1453;42.708;23.282;2022-08-21T04:57:12;35.60;;;22.97;;
2888;SDS011;1453;42.708;23.282;2022-08-21T04:59:43;49.10;;;24.10;;
2888;SDS011;1453;42.708;23.282;2022-08-21T05:02:14;35.40;;;23.90;;
2888;SDS011;1453;42.708;23.282;2022-08-21T05:04:44;33.27;;;23.13;;
2888;SDS011;1453;42.708;23.282;2022-08-21T05:07:24;32.97;;;22.40;;
2888;SDS011;1453;42.708;23.282;2022-08-21T05:09:54;40.83;;;21.40;;
2888;SDS011;1453;42.708;23.282;2022-08-21T05:12:20;32.43;;;20.80;;
2888;SDS011;1453;42.708;23.282;2022-08-21T05:14:46;32.43;;;22.07;;
2888;SDS011;1453;42.708;23.282;2022-08-21T05:17:12;28.40;;;19.83;;
2888;SDS011;1453;42.708;23.282;2022-08-21T05:19:39;25.30;;;20.20;;
2888;SDS011;1453;42.708;23.282;2022-08-21T05:22:05;22.40;;;15.93;;
2888;SDS011;1453;42.708;23.282;2022-08-21T05:24:31;25.37;;;16.97;;
2888;SDS011;1453;42.708;23.282;2022-08-21T05:26:57;24.90;;;16.53;;
2888;SDS011;1453;42.708;23.282;2022-08-21T05:29:23;25.83;;;16.63;;
2888;SDS011;1453;42.708;23.282;2022-08-21T05:31:50;21.60;;;13.77;;
2888;SDS011;1453;42.708;23.282;2022-08-21T05:34:19;20.73;;;14.13;;
2888;SDS011;1453;42.708;23.282;2022-08-21T05:36:48;21.17;;;13.47;;
2888;SDS011;1453;42.708;23.282;2022-08-21T05:39:14;24.10;;;16.40;;
2888;SDS011;1453;42.708;23.282;2022-08-21T05:41:41;27.97;;;23.37;;
2888;SDS011;1453;42.708;23.282;2022-08-21T05:44:07;35.93;;;25.97;;
2888;SDS011;1453;42.708;23.282;2022-08-21T05:46:33;35.93;;;24.63;;
2888;SDS011;1453;42.708;23.282;2022-08-21T05:48:59;28.87;;;21.93;;
2888;SDS011;1453;42.708;23.282;2022-08-21T05:51:24;31.73;;;20.50;;
2888;SDS011;1453;42.708;23.282;2022-08-21T05:53:50;29.50;;;18.07;;
2888;SDS011;1453;42.708;23.282;2022-08-21T05:56:16;28.73;;;17.23;;
2888;SDS011;1453;42.708;23.282;2022-08-21T05:58:42;21.37;;;15.73;;
2888;SDS011;1453;42.708;23.282;2022-08-21T06:01:08;20.00;;;14.73;;
2888;SDS011;1453;42.708;23.282;2022-08-21T06:03:36;23.63;;;16.53;;
2888;SDS011;1453;42.708;23.282;2022-08-21T06:06:05;20.20;;;15.70;;
2888;SDS011;1453;42.708;23.282;2022-08-21T06:08:31;23.47;;;15.20;;
2888;SDS011;1453;42.708;23.282;2022-08-21T06:10:58;22.90;;;16.43;;
2888;SDS011;1453;42.708;23.282;2022-08-21T06:13:25;20.17;;;17.10;;
2888;SDS011;1453;42.708;23.282;2022-08-21T06:16:13;23.17;;;17.00;;
2888;SDS011;1453;42.708;23.282;2022-08-21T06:18:40;23.40;;;18.70;;
2888;SDS011;1453;42.708;23.282;2022-08-21T06:21:06;25.63;;;16.27;;
2888;SDS011;1453;42.708;23.282;2022-08-21T06:23:33;20.67;;;14.10;;
2888;SDS011;1453;42.708;23.282;2022-08-21T06:26:04;17.60;;;15.10;;
2888;SDS011;1453;42.708;23.282;2022-08-21T06:28:32;20.83;;;14.50;;
2888;SDS011;1453;42.708;23.282;2022-08-21T06:30:59;23.63;;;15.40;;
2888;SDS011;1453;42.708;23.282;2022-08-21T06:33:26;21.90;;;15.67;;
2888;SDS011;1453;42.708;23.282;2022-08-21T06:35:51;20.20;;;14.67;;
2888;SDS011;1453;42.708;23.282;2022-08-21T06:38:17;17.33;;;14.40;;
2888;SDS011;1453;42.708;23.282;2022-08-21T06:40:44;16.80;;;14.17;;
2888;SDS011;1453;42.708;23.282;2022-08-21T06:43:12;17.37;;;14.87;;
2888;SDS011;1453;42.708;23.282;2022-08-21T06:45:40;18.90;;;15.27;;
2888;SDS011;1453;42.708;23.282;2022-08-21T06:48:06;19.13;;;14.97;;
2888;SDS011;1453;42.708;23.282;2022-08-21T06:50:33;21.23;;;15.60;;
2888;SDS011;1453;42.708;23.282;2022-08-21T06:53:04;23.70;;;18.10;;
2888;SDS011;1453;42.708;23.282;2022-08-21T06:55:36;30.73;;;21.60;;
2888;SDS011;1453;42.708;23.282;2022-08-21T06:58:03;27.10;;;19.63;;
2888;SDS011;1453;42.708;23.282;2022-08-21T07:00:30;24.17;;;18.40;;
2888;SDS011;1453;42.708;23.282;2022-08-21T07:02:57;26.90;;;18.07;;
2888;SDS011;1453;42.708;23.282;2022-08-21T07:05:27;27.63;;;18.27;;
2888;SDS011;1453;42.708;23.282;2022-08-21T07:07:54;26.07;;;17.80;;
2888;SDS011;1453;42.708;23.282;2022-08-21T07:10:22;22.30;;;18.40;;
2888;SDS011;1453;42.708;23.282;2022-08-21T07:12:51;30.60;;;18.67;;
2888;SDS011;1453;42.708;23.282;2022-08-21T07:15:19;22.80;;;17.70;;
2888;SDS011;1453;42.708;23.282;2022-08-21T07:17:45;20.40;;;16.80;;
2888;SDS011;1453;42.708;23.282;2022-08-21T07:20:11;26.33;;;17.57;;
2888;SDS011;1453;42.708;23.282;2022-08-21T07:22:38;26.57;;;17.63;;
2888;SDS011;1453;42.708;23.282;2022-08-21T07:25:06;22.80;;;16.53;;
2888;SDS011;1453;42.708;23.282;2022-08-21T07:27:32;28.63;;;18.50;;
2888;SDS011;1453;42.708;23.282;2022-08-21T07:29:58;21.37;;;16.13;;
2888;SDS011;1453;42.708;23.282;2022-08-21T07:32:24;24.20;;;16.90;;
2888;SDS011;1453;42.708;23.282;2022-08-21T07:34:50;21.77;;;13.73;;
2888;SDS011;1453;42.708;23.282;2022-08-21T07:37:16;16.17;;;14.20;;
2888;SDS011;1453;42.708;23.282;2022-08-21T07:39:42;18.50;;;16.50;;
2888;SDS011;1453;42.708;23.282;2022-08-21T07:42:09;21.27;;;13.70;;
2888;SDS011;1453;42.708;23.282;2022-08-21T07:44:35;19.47;;;14.50;;
2888;SDS011;1453;42.708;23.282;2022-08-21T07:47:01;15.57;;;13.93;;
2888;SDS011;1453;42.708;23.282;2022-08-21T07:49:27;17.50;;;14.10;;
2888;SDS011;1453;42.708;23.282;2022-08-21T07:51:53;16.87;;;13.03;;
2888;SDS011;1453;42.708;23.282;2022-08-21T07:54:20;16.63;;;14.67;;
2888;SDS011;1453;42.708;23.282;2022-08-21T07:56:46;18.80;;;13.80;;
2888;SDS011;1453;42.708;23.282;2022-08-21T07:59:11;15.60;;;13.20;;
2888;SDS011;1453;42.708;23.282;2022-08-21T08:01:37;15.60;;;13.40;;
2888;SDS011;1453;42.708;23.282;2022-08-21T08:04:03;22.60;;;14.50;;
2888;SDS011;1453;42.708;23.282;2022-08-21T08:06:29;14.97;;;12.50;;
2888;SDS011;1453;42.708;23.282;2022-08-21T08:08:58;20.10;;;13.53;;
2888;SDS011;1453;42.708;23.282;2022-08-21T08:11:23;15.80;;;12.47;;
2888;SDS011;1453;42.708;23.282;2022-08-21T08:13:50;17.07;;;13.23;;
2888;SDS011;1453;42.708;23.282;2022-08-21T08:16:17;16.10;;;14.00;;
2888;SDS011;1453;42.708;23.282;2022-08-21T08:18:44;18.57;;;14.37;;
2888;SDS011;1453;42.708;23.282;2022-08-21T08:21:10;16.73;;;13.43;;
2888;SDS011;1453;42.708;23.282;2022-08-21T08:23:37;15.57;;;11.80;;
2888;SDS011;1453;42.708;23.282;2022-08-21T08:26:04;14.77;;;13.27;;
2888;SDS011;1453;42.708;23.282;2022-08-21T08:28:31;17.43;;;13.17;;
2888;SDS011;1453;42.708;23.282;2022-08-21T08:30:58;16.83;;;13.60;;
2888;SDS011;1453;42.708;23.282;2022-08-21T08:33:25;34.17;;;29.00;;
2888;SDS011;1453;42.708;23.282;2022-08-21T08:35:51;15.50;;;13.77;;
2888;SDS011;1453;42.708;23.282;2022-08-21T08:38:18;15.10;;;11.93;;
2888;SDS011;1453;42.708;23.282;2022-08-21T08:43:32;15.17;;;12.43;;
2888;SDS011;1453;42.708;23.282;2022-08-21T08:46:00;18.60;;;11.70;;
2888;SDS011;1453;42.708;23.282;2022-08-21T08:50:57;18.20;;;11.10;;
2888;SDS011;1453;42.708;23.282;2022-08-21T08:53:33;13.80;;;10.90;;
2888;SDS011;1453;42.708;23.282;2022-08-21T08:56:16;12.10;;;10.83;;
2888;SDS011;1453;42.708;23.282;2022-08-21T08:58:48;15.00;;;11.00;;
2888;SDS011;1453;42.708;23.282;2022-08-21T09:01:18;20.80;;;13.10;;
2888;SDS011;1453;42.708;23.282;2022-08-21T09:03:46;13.33;;;11.30;;
2888;SDS011;1453;42.708;23.282;2022-08-21T09:08:54;12.47;;;11.17;;
2888;SDS011;1453;42.708;23.282;2022-08-21T09:20:09;14.00;;;10.53;;
2888;SDS011;1453;42.708;23.282;2022-08-21T09:23:08;13.33;;;10.60;;
2888;SDS011;1453;42.708;23.282;2022-08-21T09:26:25;13.60;;;12.20;;
2888;SDS011;1453;42.708;23.282;2022-08-21T09:28:56;13.80;;;12.47;;
2888;SDS011;1453;42.708;23.282;2022-08-21T09:34:03;13.40;;;10.97;;
2888;SDS011;1453;42.708;23.282;2022-08-21T09:36:37;11.00;;;9.90;;
2888;SDS011;1453;42.708;23.282;2022-08-21T09:39:10;15.23;;;10.40;;
2888;SDS011;1453;42.708;23.282;2022-08-21T09:41:38;13.40;;;11.43;;
2888;SDS011;1453;42.708;23.282;2022-08-21T09:44:06;12.17;;;9.47;;
2888;SDS011;1453;42.708;23.282;2022-08-21T09:46:33;11.67;;;10.47;;
2888;SDS011;1453;42.708;23.282;2022-08-21T09:49:02;22.37;;;11.10;;
2888;SDS011;1453;42.708;23.282;2022-08-21T09:51:31;13.70;;;10.33;;
2888;SDS011;1453;42.708;23.282;2022-08-21T09:56:40;11.87;;;9.00;;
2888;SDS011;1453;42.708;23.282;2022-08-21T09:59:38;12.27;;;8.90;;
2888;SDS011;1453;42.708;23.282;2022-08-21T10:04:58;12.63;;;10.20;;
2888;SDS011;1453;42.708;23.282;2022-08-21T10:07:29;10.90;;;9.20;;
2888;SDS011;1453;42.708;23.282;2022-08-21T10:09:58;13.67;;;9.10;;
2888;SDS011;1453;42.708;23.282;2022-08-21T10:19:34;15.03;;;12.37;;
2888;SDS011;1453;42.708;23.282;2022-08-21T10:25:34;12.03;;;9.13;;
2888;SDS011;1453;42.708;23.282;2022-08-21T10:28:19;9.33;;;8.03;;
2888;SDS011;1453;42.708;23.282;2022-08-21T10:39:25;12.57;;;8.50;;
2888;SDS011;1453;42.708;23.282;2022-08-21T10:44:52;10.20;;;9.20;;
2888;SDS011;1453;42.708;23.282;2022-08-21T10:47:54;10.53;;;9.43;;
2888;SDS011;1453;42.708;23.282;2022-08-21T10:56:29;12.40;;;9.30;;
2888;SDS011;1453;42.708;23.282;2022-08-21T11:02:03;11.07;;;9.97;;
2888;SDS011;1453;42.708;23.282;2022-08-21T11:04:49;12.37;;;9.40;;
2888;SDS011;1453;42.708;23.282;2022-08-21T11:07:36;12.20;;;9.17;;
2888;SDS011;1453;42.708;23.282;2022-08-21T11:13:00;11.57;;;10.17;;
2888;SDS011;1453;42.708;23.282;2022-08-21T11:24:15;11.90;;;9.73;;
2888;SDS011;1453;42.708;23.282;2022-08-21T11:27:09;9.90;;;8.97;;
2888;SDS011;1453;42.708;23.282;2022-08-21T11:29:48;10.13;;;9.13;;
2888;SDS011;1453;42.708;23.282;2022-08-21T11:35:28;10.80;;;9.53;;
2888;SDS011;1453;42.708;23.282;2022-08-21T11:41:03;10.10;;;9.03;;
2888;SDS011;1453;42.708;23.282;2022-08-21T11:47:13;10.10;;;8.90;;
2888;SDS011;1453;42.708;23.282;2022-08-21T11:50:02;10.40;;;8.77;;
2888;SDS011;1453;42.708;23.282;2022-08-21T11:55:23;10.33;;;8.80;;
2888;SDS011;1453;42.708;23.282;2022-08-21T11:58:02;9.80;;;8.80;;
2888;SDS011;1453;42.708;23.282;2022-08-21T12:00:43;10.77;;;8.77;;
2888;SDS011;1453;42.708;23.282;2022-08-21T12:06:05;10.03;;;8.60;;
2888;SDS011;1453;42.708;23.282;2022-08-21T12:08:41;9.30;;;8.27;;
2888;SDS011;1453;42.708;23.282;2022-08-21T12:13:57;10.73;;;7.80;;
2888;SDS011;1453;42.708;23.282;2022-08-21T12:16:44;11.43;;;7.27;;
2888;SDS011;1453;42.708;23.282;2022-08-21T12:19:30;12.90;;;7.30;;
2888;SDS011;1453;42.708;23.282;2022-08-21T12:29:46;8.60;;;6.47;;
2888;SDS011;1453;42.708;23.282;2022-08-21T12:34:44;8.00;;;7.00;;
2888;SDS011;1453;42.708;23.282;2022-08-21T12:39:59;7.13;;;6.43;;
2888;SDS011;1453;42.708;23.282;2022-08-21T12:42:32;8.93;;;7.77;;
2888;SDS011;1453;42.708;23.282;2022-08-21T12:45:51;10.93;;;7.90;;
2888;SDS011;1453;42.708;23.282;2022-08-21T12:48:09;10.20;;;7.40;;
2888;SDS011;1453;42.708;23.282;2022-08-21T12:53:45;9.50;;;7.93;;
2888;SDS011;1453;42.708;23.282;2022-08-21T12:56:22;9.20;;;8.23;;
2888;SDS011;1453;42.708;23.282;2022-08-21T12:59:00;9.90;;;8.90;;
2888;SDS011;1453;42.708;23.282;2022-08-21T13:04:13;8.83;;;7.83;;
2888;SDS011;1453;42.708;23.282;2022-08-21T13:06:50;9.57;;;6.97;;
2888;SDS011;1453;42.708;23.282;2022-08-21T13:09:29;8.40;;;7.00;;
2888;SDS011;1453;42.708;23.282;2022-08-21T13:11:56;9.67;;;7.87;;
2888;SDS011;1453;42.708;23.282;2022-08-21T13:14:44;11.33;;;8.17;;
2888;SDS011;1453;42.708;23.282;2022-08-21T13:17:12;9.93;;;7.73;;
2888;SDS011;1453;42.708;23.282;2022-08-21T13:19:42;9.80;;;7.70;;
2888;SDS011;1453;42.708;23.282;2022-08-21T13:22:52;10.47;;;8.63;;
2888;SDS011;1453;42.708;23.282;2022-08-21T13:25:21;8.70;;;7.80;;
2888;SDS011;1453;42.708;23.282;2022-08-21T13:30:23;8.37;;;6.20;;
2888;SDS011;1453;42.708;23.282;2022-08-21T13:32:50;7.63;;;6.40;;
2888;SDS011;1453;42.708;23.282;2022-08-21T13:35:24;10.03;;;6.80;;
2888;SDS011;1453;42.708;23.282;2022-08-21T13:37:56;15.57;;;12.77;;
2888;SDS011;1453;42.708;23.282;2022-08-21T13:40:25;7.70;;;6.90;;
2888;SDS011;1453;42.708;23.282;2022-08-21T13:42:56;10.30;;;7.87;;
2888;SDS011;1453;42.708;23.282;2022-08-21T13:45:26;9.43;;;7.50;;
2888;SDS011;1453;42.708;23.282;2022-08-21T13:47:57;10.00;;;6.57;;
2888;SDS011;1453;42.708;23.282;2022-08-21T13:50:26;10.93;;;6.73;;
2888;SDS011;1453;42.708;23.282;2022-08-21T13:52:57;10.37;;;7.70;;
2888;SDS011;1453;42.708;23.282;2022-08-21T13:55:34;8.10;;;6.63;;
2888;SDS011;1453;42.708;23.282;2022-08-21T13:58:06;8.23;;;6.97;;
2888;SDS011;1453;42.708;23.282;2022-08-21T14:00:35;12.03;;;9.07;;
2888;SDS011;1453;42.708;23.282;2022-08-21T14:03:26;11.50;;;8.57;;
2888;SDS011;1453;42.708;23.282;2022-08-21T14:06:16;8.90;;;8.00;;
2888;SDS011;1453;42.708;23.282;2022-08-21T14:08:50;8.10;;;6.63;;
2888;SDS011;1453;42.708;23.282;2022-08-21T14:11:23;9.77;;;6.53;;
2888;SDS011;1453;42.708;23.282;2022-08-21T14:13:55;9.73;;;7.50;;
2888;SDS011;1453;42.708;23.282;2022-08-21T14:16:27;12.93;;;7.13;;
2888;SDS011;1453;42.708;23.282;2022-08-21T14:19:09;10.00;;;7.17;;
2888;SDS011;1453;42.708;23.282;2022-08-21T14:21:47;7.67;;;6.53;;
2888;SDS011;1453;42.708;23.282;2022-08-21T14:26:50;7.50;;;6.47;;
2888;SDS011;1453;42.708;23.282;2022-08-21T14:29:21;9.70;;;7.30;;
2888;SDS011;1453;42.708;23.282;2022-08-21T14:31:54;7.87;;;7.03;;
2888;SDS011;1453;42.708;23.282;2022-08-21T14:34:24;9.63;;;7.80;;
2888;SDS011;1453;42.708;23.282;2022-08-21T14:36:52;9.00;;;6.50;;
2888;SDS011;1453;42.708;23.282;2022-08-21T14:39:20;10.50;;;7.23;;
2888;SDS011;1453;42.708;23.282;2022-08-21T14:41:46;9.33;;;6.43;;
2888;SDS011;1453;42.708;23.282;2022-08-21T14:44:14;8.40;;;6.50;;
2888;SDS011;1453;42.708;23.282;2022-08-21T14:46:42;9.93;;;7.70;;
2888;SDS011;1453;42.708;23.282;2022-08-21T14:49:08;11.47;;;8.17;;
2888;SDS011;1453;42.708;23.282;2022-08-21T14:51:36;9.90;;;6.43;;
2888;SDS011;1453;42.708;23.282;2022-08-21T14:54:03;8.83;;;7.13;;
2888;SDS011;1453;42.708;23.282;2022-08-21T14:56:31;8.27;;;7.13;;
2888;SDS011;1453;42.708;23.282;2022-08-21T14:58:58;8.70;;;7.80;;
2888;SDS011;1453;42.708;23.282;2022-08-21T15:01:34;12.33;;;10.10;;
2888;SDS011;1453;42.708;23.282;2022-08-21T15:04:01;8.57;;;7.67;;
2888;SDS011;1453;42.708;23.282;2022-08-21T15:06:28;11.17;;;8.97;;
2888;SDS011;1453;42.708;23.282;2022-08-21T15:08:53;11.57;;;8.80;;
2888;SDS011;1453;42.708;23.282;2022-08-21T15:11:20;8.83;;;7.77;;
2888;SDS011;1453;42.708;23.282;2022-08-21T15:13:48;11.33;;;7.43;;
2888;SDS011;1453;42.708;23.282;2022-08-21T15:16:21;10.10;;;7.40;;
2888;SDS011;1453;42.708;23.282;2022-08-21T15:18:48;10.93;;;8.70;;
2888;SDS011;1453;42.708;23.282;2022-08-21T15:21:14;12.63;;;7.93;;
2888;SDS011;1453;42.708;23.282;2022-08-21T15:23:39;13.60;;;8.47;;
2888;SDS011;1453;42.708;23.282;2022-08-21T15:26:05;9.27;;;8.03;;
2888;SDS011;1453;42.708;23.282;2022-08-21T15:28:31;13.83;;;8.90;;
2888;SDS011;1453;42.708;23.282;2022-08-21T15:30:59;12.60;;;8.20;;
2888;SDS011;1453;42.708;23.282;2022-08-21T15:33:26;13.97;;;7.77;;
2888;SDS011;1453;42.708;23.282;2022-08-21T15:35:52;17.13;;;8.60;;
2888;SDS011;1453;42.708;23.282;2022-08-21T15:38:18;13.90;;;8.40;;
2888;SDS011;1453;42.708;23.282;2022-08-21T15:40:44;15.47;;;9.77;;
2888;SDS011;1453;42.708;23.282;2022-08-21T15:43:23;12.37;;;8.40;;
2888;SDS011;1453;42.708;23.282;2022-08-21T15:45:55;11.87;;;9.07;;
2888;SDS011;1453;42.708;23.282;2022-08-21T15:48:23;12.20;;;9.07;;
2888;SDS011;1453;42.708;23.282;2022-08-21T15:50:49;11.57;;;9.50;;
2888;SDS011;1453;42.708;23.282;2022-08-21T15:53:15;9.10;;;8.10;;
2888;SDS011;1453;42.708;23.282;2022-08-21T15:55:41;9.70;;;8.30;;
2888;SDS011;1453;42.708;23.282;2022-08-21T15:58:07;11.63;;;9.10;;
2888;SDS011;1453;42.708;23.282;2022-08-21T16:00:41;15.60;;;8.87;;
2888;SDS011;1453;42.708;23.282;2022-08-21T16:03:09;9.90;;;8.37;;
2888;SDS011;1453;42.708;23.282;2022-08-21T16:05:40;11.33;;;8.80;;
2888;SDS011;1453;42.708;23.282;2022-08-21T16:08:07;12.70;;;7.93;;
2888;SDS011;1453;42.708;23.282;2022-08-21T16:10:34;10.53;;;9.43;;
2888;SDS011;1453;42.708;23.282;2022-08-21T16:13:03;17.80;;;9.20;;
2888;SDS011;1453;42.708;23.282;2022-08-21T16:15:33;9.00;;;8.20;;
2888;SDS011;1453;42.708;23.282;2022-08-21T16:17:59;16.63;;;9.27;;
2888;SDS011;1453;42.708;23.282;2022-08-21T16:20:27;10.00;;;8.03;;
2888;SDS011;1453;42.708;23.282;2022-08-21T16:22:55;12.10;;;9.00;;
2888;SDS011;1453;42.708;23.282;2022-08-21T16:25:22;11.80;;;8.83;;
2888;SDS011;1453;42.708;23.282;2022-08-21T16:27:50;12.90;;;9.07;;
2888;SDS011;1453;42.708;23.282;2022-08-21T16:30:20;10.13;;;9.10;;
2888;SDS011;1453;42.708;23.282;2022-08-21T16:32:46;12.63;;;8.70;;
2888;SDS011;1453;42.708;23.282;2022-08-21T16:35:14;11.17;;;8.70;;
2888;SDS011;1453;42.708;23.282;2022-08-21T16:37:42;12.47;;;9.37;;
2888;SDS011;1453;42.708;23.282;2022-08-21T16:40:09;11.73;;;10.10;;
2888;SDS011;1453;42.708;23.282;2022-08-21T16:42:37;13.70;;;9.73;;
2888;SDS011;1453;42.708;23.282;2022-08-21T16:45:05;10.50;;;8.93;;
2888;SDS011;1453;42.708;23.282;2022-08-21T16:47:34;16.40;;;10.00;;
2888;SDS011;1453;42.708;23.282;2022-08-21T16:50:00;10.37;;;9.27;;
2888;SDS011;1453;42.708;23.282;2022-08-21T16:52:26;13.90;;;8.77;;
2888;SDS011;1453;42.708;23.282;2022-08-21T16:54:52;12.93;;;9.10;;